createdAt,value
2023-05-05T00:00:35.246Z,26.41
2023-05-05T00:01:35.234Z,26.39
2023-05-05T00:02:35.297Z,26.41
2023-05-05T00:03:35.453Z,26.39
2023-05-05T00:04:35.204Z,26.41
2023-05-05T00:05:35.230Z,26.44
2023-05-05T00:06:35.194Z,26.42
2023-05-05T00:07:35.185Z,26.39
2023-05-05T00:08:35.169Z,26.41
2023-05-05T00:09:35.182Z,26.38
2023-05-05T00:10:35.182Z,26.39
2023-05-05T00:11:35.168Z,26.38
2023-05-05T00:12:35.185Z,26.41
2023-05-05T00:13:35.153Z,26.41
2023-05-05T00:14:35.149Z,26.39
2023-05-05T00:15:35.130Z,26.39
2023-05-05T00:16:35.151Z,26.37
2023-05-05T00:17:35.179Z,26.38
2023-05-05T00:18:35.106Z,26.35
2023-05-05T00:19:35.118Z,26.37
2023-05-05T00:20:35.141Z,26.35
2023-05-05T00:21:35.101Z,26.38
2023-05-05T00:22:35.074Z,26.38
2023-05-05T00:23:35.071Z,26.38
2023-05-05T00:24:35.067Z,26.37
2023-05-05T00:25:35.089Z,26.37
2023-05-05T00:26:35.092Z,26.39
2023-05-05T00:27:35.051Z,26.38
2023-05-05T00:28:35.063Z,26.38
2023-05-05T00:29:35.033Z,26.35
2023-05-05T00:30:35.024Z,26.38
2023-05-05T00:31:35.088Z,26.38
2023-05-05T00:32:35.032Z,26.37
2023-05-05T00:33:35.016Z,26.35
2023-05-05T00:34:35.054Z,26.37
2023-05-05T00:35:35.017Z,26.37
2023-05-05T00:36:35.018Z,26.37
2023-05-05T00:37:34.993Z,26.35
2023-05-05T00:38:34.996Z,26.37
2023-05-05T00:39:35.011Z,26.37
2023-05-05T00:40:34.996Z,26.37
2023-05-05T00:41:34.986Z,26.37
2023-05-05T00:42:34.962Z,26.34
2023-05-05T00:43:34.968Z,26.38
2023-05-05T00:44:34.941Z,26.35
2023-05-05T00:45:34.955Z,26.37
2023-05-05T00:46:34.955Z,26.38
2023-05-05T00:47:34.965Z,26.35
2023-05-05T00:48:34.930Z,26.38
2023-05-05T00:49:34.944Z,26.39
2023-05-05T00:50:34.913Z,26.37
2023-05-05T00:51:34.895Z,26.41
2023-05-05T00:52:34.892Z,26.39
2023-05-05T00:53:34.881Z,26.41
2023-05-05T00:54:34.877Z,26.42
2023-05-05T00:55:34.893Z,26.42
2023-05-05T00:56:34.881Z,26.42
2023-05-05T00:57:34.859Z,26.41
2023-05-05T00:58:34.891Z,26.44
2023-05-05T00:59:34.924Z,26.41
2023-05-05T01:00:34.855Z,26.44
2023-05-05T01:01:34.885Z,26.44
2023-05-05T01:02:34.889Z,26.46
2023-05-05T01:03:34.958Z,26.45
2023-05-05T01:04:34.822Z,26.45
2023-05-05T01:05:34.808Z,26.48
2023-05-05T01:06:34.791Z,26.48
2023-05-05T01:07:34.810Z,26.48
2023-05-05T01:08:34.809Z,26.49
2023-05-05T01:09:34.786Z,26.48
2023-05-05T01:10:34.786Z,26.49
2023-05-05T01:11:34.769Z,26.51
2023-05-05T01:12:34.797Z,26.49
2023-05-05T01:13:34.762Z,26.51
2023-05-05T01:14:34.745Z,26.51
2023-05-05T01:15:34.750Z,26.49
2023-05-05T01:16:34.852Z,26.54
2023-05-05T01:17:34.775Z,26.52
2023-05-05T01:18:34.727Z,26.51
2023-05-05T01:19:34.700Z,26.52
2023-05-05T01:20:34.701Z,26.52
2023-05-05T01:21:34.701Z,26.51
2023-05-05T01:22:34.701Z,26.52
2023-05-05T01:23:34.670Z,26.54
2023-05-05T01:24:34.680Z,26.51
2023-05-05T01:25:34.685Z,26.55
2023-05-05T01:26:34.684Z,26.54
2023-05-05T01:27:34.644Z,26.55
2023-05-05T01:28:34.675Z,26.56
2023-05-05T01:29:34.652Z,26.54
2023-05-05T01:30:34.628Z,26.54
2023-05-05T01:31:34.686Z,26.56
2023-05-05T01:32:34.647Z,26.54
2023-05-05T01:33:34.633Z,26.55
2023-05-05T01:34:34.610Z,26.58
2023-05-05T01:35:34.592Z,26.56
2023-05-05T01:36:34.602Z,26.56
2023-05-05T01:37:34.599Z,26.56
2023-05-05T01:38:34.570Z,26.58
2023-05-05T01:39:34.567Z,26.56
2023-05-05T01:40:34.569Z,26.58
2023-05-05T01:41:34.601Z,26.55
2023-05-05T01:42:34.543Z,26.55
2023-05-05T01:43:34.549Z,26.58
2023-05-05T01:44:34.526Z,26.56
2023-05-05T01:45:34.630Z,26.58
2023-05-05T01:46:34.555Z,26.58
2023-05-05T01:47:34.542Z,26.56
2023-05-05T01:48:34.511Z,26.58
2023-05-05T01:49:34.529Z,26.56
2023-05-05T01:50:34.533Z,26.58
2023-05-05T01:51:34.482Z,26.58
2023-05-05T01:52:34.491Z,26.60
2023-05-05T01:53:34.482Z,26.58
2023-05-05T01:54:34.465Z,26.58
2023-05-05T01:55:34.520Z,26.58
2023-05-05T01:56:34.472Z,26.58
2023-05-05T01:57:34.446Z,26.59
2023-05-05T01:58:34.453Z,26.60
2023-05-05T01:59:34.432Z,26.56
2023-05-05T02:00:34.424Z,26.58
2023-05-05T02:01:34.474Z,26.59
2023-05-05T02:02:34.518Z,26.59
2023-05-05T02:03:34.449Z,26.58
2023-05-05T02:04:34.403Z,26.60
2023-05-05T02:05:34.421Z,26.60
2023-05-05T02:06:34.400Z,26.59
2023-05-05T02:07:34.395Z,26.59
2023-05-05T02:08:34.380Z,26.58
2023-05-05T02:09:34.361Z,26.60
2023-05-05T02:10:34.353Z,26.59
2023-05-05T02:11:34.370Z,26.59
2023-05-05T02:12:34.370Z,26.60
2023-05-05T02:13:34.376Z,26.59
2023-05-05T02:14:34.343Z,26.60
2023-05-05T02:15:34.363Z,26.59
2023-05-05T02:16:34.340Z,26.60
2023-05-05T02:17:34.372Z,26.59
2023-05-05T02:18:34.347Z,26.60
2023-05-05T02:19:34.307Z,26.62
2023-05-05T02:20:34.293Z,26.60
2023-05-05T02:21:34.309Z,26.59
2023-05-05T02:22:34.319Z,26.59
2023-05-05T02:23:34.322Z,26.60
2023-05-05T02:24:34.271Z,26.60
2023-05-05T02:25:34.273Z,26.62
2023-05-05T02:26:34.260Z,26.62
2023-05-05T02:27:34.260Z,26.62
2023-05-05T02:28:34.277Z,26.60
2023-05-05T02:29:34.237Z,26.63
2023-05-05T02:30:34.262Z,26.63
2023-05-05T02:31:34.291Z,26.60
2023-05-05T02:32:34.404Z,26.63
2023-05-05T02:33:34.329Z,26.65
2023-05-05T02:34:34.332Z,26.60
2023-05-05T02:35:34.378Z,26.62
2023-05-05T02:36:34.376Z,26.63
2023-05-05T02:37:34.370Z,26.63
2023-05-05T02:38:34.394Z,26.62
2023-05-05T02:39:34.402Z,26.62
2023-05-05T02:40:34.418Z,26.60
2023-05-05T02:41:34.430Z,26.62
2023-05-05T02:42:34.450Z,26.62
2023-05-05T02:43:34.453Z,26.63
2023-05-05T02:44:34.475Z,26.63
2023-05-05T02:45:34.473Z,26.63
2023-05-05T02:46:34.530Z,26.65
2023-05-05T02:47:34.534Z,26.63
2023-05-05T02:48:34.508Z,26.63
2023-05-05T02:49:34.513Z,26.60
2023-05-05T02:50:34.528Z,26.62
2023-05-05T02:51:34.559Z,26.65
2023-05-05T02:52:34.567Z,26.62
2023-05-05T02:53:34.571Z,26.65
2023-05-05T02:54:34.538Z,26.63
2023-05-05T02:55:34.556Z,26.65
2023-05-05T02:56:34.541Z,26.65
2023-05-05T02:57:34.542Z,26.63
2023-05-05T02:58:34.542Z,26.63
2023-05-05T02:59:34.553Z,26.63
2023-05-05T03:00:34.533Z,26.62
2023-05-05T03:01:34.613Z,26.65
2023-05-05T03:02:34.621Z,26.63
2023-05-05T03:03:34.657Z,26.62
2023-05-05T03:04:34.581Z,26.62
2023-05-05T03:05:34.579Z,26.62
2023-05-05T03:06:34.613Z,26.63
2023-05-05T03:07:34.626Z,26.63
2023-05-05T03:08:34.632Z,26.65
2023-05-05T03:09:34.679Z,26.66
2023-05-05T03:10:34.649Z,26.66
2023-05-05T03:11:34.654Z,26.62
2023-05-05T03:12:34.717Z,26.65
2023-05-05T03:13:34.702Z,26.63
2023-05-05T03:14:34.737Z,26.60
2023-05-05T03:15:34.721Z,26.62
2023-05-05T03:16:34.762Z,26.63
2023-05-05T03:17:34.727Z,26.62
2023-05-05T03:18:34.725Z,26.62
2023-05-05T03:19:34.732Z,26.65
2023-05-05T03:20:34.731Z,26.63
2023-05-05T03:21:34.781Z,26.65
2023-05-05T03:22:34.752Z,26.63
2023-05-05T03:23:34.760Z,26.63
2023-05-05T03:24:34.769Z,26.63
2023-05-05T03:25:34.793Z,26.62
2023-05-05T03:26:34.803Z,26.63
2023-05-05T03:27:34.820Z,26.66
2023-05-05T03:28:34.833Z,26.65
2023-05-05T03:29:34.871Z,26.63
2023-05-05T03:30:34.893Z,26.62
2023-05-05T03:31:34.952Z,26.65
2023-05-05T03:32:34.942Z,26.65
2023-05-05T03:33:34.926Z,26.63
2023-05-05T03:34:34.965Z,26.65
2023-05-05T03:35:34.970Z,26.63
2023-05-05T03:36:34.979Z,26.65
2023-05-05T03:37:34.963Z,26.65
2023-05-05T03:38:34.979Z,26.63
2023-05-05T03:39:34.979Z,26.63
2023-05-05T03:40:43.728Z,26.63
2023-05-05T03:41:36.004Z,26.66
2023-05-05T03:42:34.989Z,26.62
2023-05-05T03:43:34.983Z,26.62
2023-05-05T03:44:34.977Z,26.65
2023-05-05T03:45:34.984Z,26.63
2023-05-05T03:46:34.958Z,26.65
2023-05-05T03:47:34.957Z,26.65
2023-05-05T03:48:34.937Z,26.66
2023-05-05T03:49:34.947Z,26.62
2023-05-05T03:50:34.939Z,26.63
2023-05-05T03:51:34.934Z,26.65
2023-05-05T03:52:34.920Z,26.63
2023-05-05T03:53:34.929Z,26.63
2023-05-05T03:54:34.902Z,26.63
2023-05-05T03:55:34.901Z,26.65
2023-05-05T03:56:34.915Z,26.62
2023-05-05T03:57:34.942Z,26.63
2023-05-05T03:58:35.070Z,26.62
2023-05-05T03:59:34.967Z,26.65
2023-05-05T04:00:34.973Z,26.62
2023-05-05T04:01:34.999Z,26.63
2023-05-05T04:02:35.143Z,26.65
2023-05-05T04:03:35.067Z,26.62
2023-05-05T04:04:35.111Z,26.66
2023-05-05T04:05:35.026Z,26.63
2023-05-05T04:06:35.040Z,26.63
2023-05-05T04:07:35.040Z,26.65
2023-05-05T04:08:35.058Z,26.62
2023-05-05T04:09:35.061Z,26.65
2023-05-05T04:10:35.049Z,26.62
2023-05-05T04:11:35.055Z,26.63
2023-05-05T04:12:35.104Z,26.65
2023-05-05T04:13:35.049Z,26.62
2023-05-05T04:14:35.041Z,26.62
2023-05-05T04:15:35.103Z,26.63
2023-05-05T04:16:35.052Z,26.62
2023-05-05T04:17:35.156Z,26.60
2023-05-05T04:18:35.087Z,26.62
2023-05-05T04:19:35.098Z,26.63
2023-05-05T04:20:35.088Z,26.60
2023-05-05T04:21:35.124Z,26.63
2023-05-05T04:22:35.167Z,26.62
2023-05-05T04:23:35.175Z,26.63
2023-05-05T04:24:35.192Z,26.63
2023-05-05T04:25:35.245Z,26.66
2023-05-05T04:26:35.222Z,26.63
2023-05-05T04:27:35.226Z,26.62
2023-05-05T04:28:35.238Z,26.65
2023-05-05T04:29:35.276Z,26.65
2023-05-05T04:30:35.307Z,26.66
2023-05-05T04:31:35.349Z,26.65
2023-05-05T04:32:35.380Z,26.63
2023-05-05T04:33:35.351Z,26.65
2023-05-05T04:34:35.396Z,26.65
2023-05-05T04:35:35.429Z,26.65
2023-05-05T04:36:35.453Z,26.65
2023-05-05T04:37:35.486Z,26.65
2023-05-05T04:38:35.552Z,26.66
2023-05-05T04:39:35.553Z,26.66
2023-05-05T04:40:35.574Z,26.68
2023-05-05T04:41:35.594Z,26.65
2023-05-05T04:42:35.630Z,26.66
2023-05-05T04:43:35.645Z,26.65
2023-05-05T04:44:35.678Z,26.66
2023-05-05T04:45:35.692Z,26.66
2023-05-05T04:46:35.774Z,26.68
2023-05-05T04:47:35.768Z,26.66
2023-05-05T04:48:35.804Z,26.66
2023-05-05T04:49:35.807Z,26.68
2023-05-05T04:50:35.828Z,26.68
2023-05-05T04:51:35.872Z,26.69
2023-05-05T04:52:35.882Z,26.65
2023-05-05T04:53:35.921Z,26.69
2023-05-05T04:54:35.952Z,26.68
2023-05-05T04:55:35.994Z,26.69
2023-05-05T04:56:36.064Z,26.68
2023-05-05T04:57:36.114Z,26.69
2023-05-05T04:58:36.180Z,26.72
2023-05-05T04:59:36.225Z,26.71
2023-05-05T05:00:36.281Z,26.75
2023-05-05T05:01:38.582Z,26.76
2023-05-05T05:02:36.476Z,26.81
2023-05-05T05:03:36.539Z,26.83
2023-05-05T05:04:36.521Z,26.85
2023-05-05T05:05:36.591Z,26.86
2023-05-05T05:06:36.657Z,26.92
2023-05-05T05:07:36.708Z,26.90
2023-05-05T05:08:36.776Z,26.95
2023-05-05T05:09:36.848Z,26.92
2023-05-05T05:10:36.881Z,26.95
2023-05-05T05:11:36.951Z,26.96
2023-05-05T05:12:37.069Z,26.99
2023-05-05T05:13:37.062Z,26.99
2023-05-05T05:14:37.094Z,27.00
2023-05-05T05:15:37.137Z,27.06
2023-05-05T05:16:37.282Z,27.06
2023-05-05T05:17:37.253Z,27.09
2023-05-05T05:18:37.335Z,27.09
2023-05-05T05:19:37.356Z,27.13
2023-05-05T05:20:37.408Z,27.10
2023-05-05T05:21:37.459Z,27.13
2023-05-05T05:22:37.524Z,27.10
2023-05-05T05:23:37.581Z,27.09
2023-05-05T05:24:37.647Z,27.13
2023-05-05T05:25:37.649Z,27.12
2023-05-05T05:26:37.737Z,27.09
2023-05-05T05:27:37.735Z,27.13
2023-05-05T05:28:37.783Z,27.07
2023-05-05T05:29:37.863Z,27.07
2023-05-05T05:30:37.900Z,27.07
2023-05-05T05:31:38.385Z,27.07
2023-05-05T05:32:38.013Z,27.07
2023-05-05T05:33:38.350Z,27.10
2023-05-05T05:34:38.171Z,27.12
2023-05-05T05:35:38.116Z,27.12
2023-05-05T05:36:38.179Z,27.16
2023-05-05T05:37:38.203Z,27.14
2023-05-05T05:38:38.249Z,27.22
2023-05-05T05:39:38.303Z,27.26
2023-05-05T05:40:38.316Z,27.29
2023-05-05T05:41:38.345Z,27.36
2023-05-05T05:42:38.351Z,27.39
2023-05-05T05:43:38.849Z,27.43
2023-05-05T05:44:38.412Z,27.44
2023-05-05T05:45:38.438Z,27.46
2023-05-05T05:46:38.559Z,27.50
2023-05-05T05:47:38.481Z,27.53
2023-05-05T05:48:38.433Z,27.57
2023-05-05T05:49:38.434Z,27.58
2023-05-05T05:50:38.437Z,27.58
2023-05-05T05:51:38.438Z,27.63
2023-05-05T05:52:38.432Z,27.67
2023-05-05T05:53:38.482Z,27.67
2023-05-05T05:54:38.438Z,27.71
2023-05-05T05:55:38.479Z,27.70
2023-05-05T05:56:38.444Z,27.70
2023-05-05T05:57:38.463Z,27.73
2023-05-05T05:58:38.466Z,27.74
2023-05-05T05:59:38.462Z,27.77
2023-05-05T06:00:38.455Z,27.75
2023-05-05T06:01:38.450Z,27.80
2023-05-05T06:02:38.499Z,27.80
2023-05-05T06:03:38.906Z,27.83
2023-05-05T06:04:38.533Z,27.83
2023-05-05T06:05:38.443Z,27.81
2023-05-05T06:06:38.440Z,27.84
2023-05-05T06:07:38.449Z,27.85
2023-05-05T06:08:38.903Z,27.88
2023-05-05T06:09:38.459Z,27.88
2023-05-05T06:10:38.438Z,27.88
2023-05-05T06:11:38.453Z,27.90
2023-05-05T06:12:38.505Z,27.94
2023-05-05T06:13:38.488Z,27.94
2023-05-05T06:14:38.470Z,27.94
2023-05-05T06:15:38.513Z,27.94
2023-05-05T06:16:38.478Z,27.98
2023-05-05T06:17:38.547Z,27.98
2023-05-05T06:18:38.902Z,28.01
2023-05-05T06:19:38.496Z,27.98
2023-05-05T06:20:38.596Z,27.98
2023-05-05T06:21:38.594Z,28.00
2023-05-05T06:22:38.617Z,28.04
2023-05-05T06:23:38.637Z,28.04
2023-05-05T06:24:38.710Z,28.05
2023-05-05T06:25:38.771Z,28.05
2023-05-05T06:26:38.830Z,28.05
2023-05-05T06:27:38.915Z,28.08
2023-05-05T06:28:38.996Z,28.09
2023-05-05T06:29:38.980Z,28.07
2023-05-05T06:30:39.900Z,28.07
2023-05-05T06:31:39.454Z,28.07
2023-05-05T06:32:39.145Z,28.07
2023-05-05T06:33:39.178Z,28.04
2023-05-05T06:34:39.209Z,28.03
2023-05-05T06:35:39.237Z,28.01
2023-05-05T06:36:39.297Z,28.03
2023-05-05T06:37:39.314Z,28.05
2023-05-05T06:38:39.408Z,28.07
2023-05-05T06:39:39.434Z,28.08
2023-05-05T06:40:39.519Z,28.12
2023-05-05T06:41:39.614Z,28.12
2023-05-05T06:42:39.648Z,28.12
2023-05-05T06:43:39.888Z,28.12
2023-05-05T06:44:39.813Z,28.15
2023-05-05T06:45:40.283Z,28.17
2023-05-05T06:46:40.395Z,28.14
2023-05-05T06:47:39.966Z,28.15
2023-05-05T06:48:40.044Z,28.14
2023-05-05T06:49:40.100Z,28.14
2023-05-05T06:50:40.163Z,28.15
2023-05-05T06:51:41.548Z,28.12
2023-05-05T06:52:40.384Z,28.12
2023-05-05T06:53:40.894Z,28.14
2023-05-05T06:54:40.549Z,28.15
2023-05-05T06:55:40.584Z,28.14
2023-05-05T06:56:40.624Z,28.18
2023-05-05T06:57:40.690Z,28.17
2023-05-05T06:58:40.761Z,28.19
2023-05-05T06:59:40.837Z,28.18
2023-05-05T07:00:41.472Z,28.18
2023-05-05T07:01:40.960Z,28.18
2023-05-05T07:02:41.028Z,28.17
2023-05-05T07:03:41.110Z,28.15
2023-05-05T07:04:41.131Z,28.17
2023-05-05T07:05:41.200Z,28.18
2023-05-05T07:06:41.261Z,28.18
2023-05-05T07:07:41.324Z,28.18
2023-05-05T07:08:41.418Z,28.19
2023-05-05T07:09:41.418Z,28.18
2023-05-05T07:10:41.545Z,28.19
2023-05-05T07:11:41.909Z,28.19
2023-05-05T07:12:41.614Z,28.18
2023-05-05T07:13:41.677Z,28.19
2023-05-05T07:14:41.731Z,28.21
2023-05-05T07:15:41.772Z,28.18
2023-05-05T07:16:41.907Z,28.19
2023-05-05T07:17:41.915Z,28.18
2023-05-05T07:18:41.974Z,28.17
2023-05-05T07:19:42.020Z,28.15
2023-05-05T07:20:42.098Z,28.15
2023-05-05T07:21:42.173Z,28.14
2023-05-05T07:22:42.240Z,28.14
2023-05-05T07:23:42.304Z,28.18
2023-05-05T07:24:42.342Z,28.15
2023-05-05T07:25:42.383Z,28.17
2023-05-05T07:26:42.523Z,28.14
2023-05-05T07:27:42.495Z,28.11
2023-05-05T07:28:42.911Z,28.09
2023-05-05T07:29:42.619Z,27.94
2023-05-05T07:30:42.624Z,27.95
2023-05-05T07:31:42.989Z,28.01
2023-05-05T07:32:42.726Z,28.01
2023-05-05T07:33:42.765Z,28.08
2023-05-05T07:34:42.818Z,28.08
2023-05-05T07:35:42.882Z,28.11
2023-05-05T07:36:42.935Z,28.11
2023-05-05T07:37:43.023Z,28.14
2023-05-05T07:38:43.057Z,28.12
2023-05-05T07:39:43.126Z,28.15
2023-05-05T07:40:43.190Z,28.15
2023-05-05T07:41:43.229Z,28.15
2023-05-05T07:42:43.389Z,28.15
2023-05-05T07:43:44.498Z,28.15
2023-05-05T07:44:43.408Z,28.17
2023-05-05T07:45:43.484Z,28.12
2023-05-05T07:46:43.538Z,28.12
2023-05-05T07:47:43.630Z,28.14
2023-05-05T07:48:43.910Z,28.12
2023-05-05T07:49:43.747Z,28.14
2023-05-05T07:50:43.793Z,28.15
2023-05-05T07:51:43.878Z,28.12
2023-05-05T07:52:46.803Z,28.12
2023-05-05T07:53:45.426Z,28.12
2023-05-05T07:54:43.925Z,28.14
2023-05-05T07:55:43.918Z,28.12
2023-05-05T07:56:43.899Z,28.14
2023-05-05T07:57:43.903Z,28.15
2023-05-05T07:58:43.976Z,28.17
2023-05-05T07:59:43.896Z,28.17
2023-05-05T08:00:43.909Z,28.15
2023-05-05T08:01:44.440Z,28.15
2023-05-05T08:02:44.146Z,28.15
2023-05-05T08:03:44.243Z,28.15
2023-05-05T08:04:44.252Z,28.14
2023-05-05T08:05:44.220Z,28.14
2023-05-05T08:06:44.299Z,28.12
2023-05-05T08:07:44.348Z,28.12
2023-05-05T08:08:44.393Z,28.14
2023-05-05T08:09:44.930Z,28.11
2023-05-05T08:10:44.541Z,28.15
2023-05-05T08:11:44.592Z,28.15
2023-05-05T08:12:44.664Z,28.14
2023-05-05T08:13:44.730Z,28.15
2023-05-05T08:14:44.819Z,28.15
2023-05-05T08:15:44.822Z,28.14
2023-05-05T08:16:44.885Z,28.15
2023-05-05T08:17:45.019Z,28.14
2023-05-05T08:18:45.017Z,28.15
2023-05-05T08:19:45.414Z,28.17
2023-05-05T08:20:45.106Z,28.15
2023-05-05T08:21:45.176Z,28.15
2023-05-05T08:22:45.333Z,27.98
2023-05-05T08:23:45.305Z,27.98
2023-05-05T08:24:45.312Z,28.01
2023-05-05T08:25:45.347Z,28.01
2023-05-05T08:26:45.423Z,28.00
2023-05-05T08:27:45.474Z,27.97
2023-05-05T08:28:45.506Z,27.98
2023-05-05T08:29:45.557Z,27.94
2023-05-05T08:30:45.688Z,27.93
2023-05-05T08:31:45.611Z,27.91
2023-05-05T08:32:45.616Z,27.90
2023-05-05T08:33:45.572Z,27.91
2023-05-05T08:34:45.583Z,27.88
2023-05-05T08:35:45.556Z,27.75
2023-05-05T08:36:45.571Z,27.77
2023-05-05T08:37:45.570Z,27.79
2023-05-05T08:38:45.578Z,27.81
2023-05-05T08:39:45.607Z,27.84
2023-05-05T08:40:45.580Z,27.77
2023-05-05T08:41:45.602Z,27.84
2023-05-05T08:42:45.662Z,27.88
2023-05-05T08:43:45.698Z,27.88
2023-05-05T08:44:45.770Z,27.94
2023-05-05T08:45:45.833Z,27.95
2023-05-05T08:46:46.146Z,28.01
2023-05-05T08:47:46.489Z,28.03
2023-05-05T08:48:46.009Z,28.07
2023-05-05T08:49:46.092Z,28.12
2023-05-05T08:50:46.142Z,28.14
2023-05-05T08:51:46.195Z,28.19
2023-05-05T08:52:46.848Z,28.25
2023-05-05T08:53:46.257Z,28.29
2023-05-05T08:54:46.449Z,28.34
2023-05-05T08:55:46.437Z,28.37
2023-05-05T08:56:46.383Z,28.39
2023-05-05T08:57:46.416Z,28.38
2023-05-05T08:58:46.460Z,28.41
2023-05-05T08:59:46.479Z,28.44
2023-05-05T09:00:46.557Z,28.47
2023-05-05T09:01:46.538Z,28.49
2023-05-05T09:02:46.712Z,28.48
2023-05-05T09:03:46.607Z,28.52
2023-05-05T09:04:46.607Z,28.52
2023-05-05T09:05:46.655Z,28.56
2023-05-05T09:06:46.647Z,28.56
2023-05-05T09:07:46.697Z,28.59
2023-05-05T09:08:46.729Z,28.58
2023-05-05T09:09:46.801Z,28.59
2023-05-05T09:10:46.764Z,28.65
2023-05-05T09:11:46.748Z,28.66
2023-05-05T09:12:46.826Z,28.69
2023-05-05T09:13:46.775Z,28.72
2023-05-05T09:14:46.786Z,28.73
2023-05-05T09:15:46.812Z,28.73
2023-05-05T09:16:46.878Z,28.73
2023-05-05T09:17:46.850Z,28.75
2023-05-05T09:18:46.849Z,28.73
2023-05-05T09:19:46.869Z,28.76
2023-05-05T09:20:46.854Z,28.75
2023-05-05T09:21:46.876Z,28.78
2023-05-05T09:22:46.932Z,28.78
2023-05-05T09:23:46.888Z,28.79
2023-05-05T09:24:46.907Z,28.79
2023-05-05T09:25:46.916Z,28.78
2023-05-05T09:26:46.961Z,28.76
2023-05-05T09:27:47.020Z,28.80
2023-05-05T09:28:47.018Z,28.80
2023-05-05T09:29:46.987Z,28.80
2023-05-05T09:30:47.038Z,28.78
2023-05-05T09:31:47.021Z,28.76
2023-05-05T09:32:47.537Z,28.80
2023-05-05T09:33:46.998Z,28.75
2023-05-05T09:34:47.069Z,28.72
2023-05-05T09:35:47.005Z,28.72
2023-05-05T09:36:47.026Z,28.73
2023-05-05T09:37:47.454Z,28.76
2023-05-05T09:38:47.090Z,28.82
2023-05-05T09:39:47.064Z,28.75
2023-05-05T09:40:47.076Z,28.75
2023-05-05T09:41:47.104Z,28.75
2023-05-05T09:42:47.095Z,28.73
2023-05-05T09:43:47.125Z,28.76
2023-05-05T09:44:47.113Z,28.78
2023-05-05T09:45:47.146Z,28.78
2023-05-05T09:46:47.250Z,28.83
2023-05-05T09:47:47.344Z,28.82
2023-05-05T09:48:47.203Z,28.85
2023-05-05T09:49:47.182Z,28.89
2023-05-05T09:50:47.211Z,28.86
2023-05-05T09:51:47.197Z,28.89
2023-05-05T09:52:48.121Z,28.93
2023-05-05T09:53:47.218Z,28.96
2023-05-05T09:54:47.250Z,28.96
2023-05-05T09:55:47.271Z,28.99
2023-05-05T09:56:47.265Z,28.98
2023-05-05T09:57:47.482Z,28.99
2023-05-05T09:58:47.341Z,28.99
2023-05-05T09:59:47.308Z,29.00
2023-05-05T10:00:47.327Z,28.99
2023-05-05T10:01:47.400Z,29.02
2023-05-05T10:02:47.380Z,28.99
2023-05-05T10:03:47.350Z,29.03
2023-05-05T10:04:47.556Z,29.05
2023-05-05T10:05:47.414Z,29.03
2023-05-05T10:06:47.472Z,29.03
2023-05-05T10:07:47.448Z,29.05
2023-05-05T10:08:47.459Z,29.03
2023-05-05T10:09:47.468Z,29.05
2023-05-05T10:10:47.489Z,29.02
2023-05-05T10:11:47.531Z,29.06
2023-05-05T10:12:47.571Z,29.07
2023-05-05T10:13:47.521Z,29.06
2023-05-05T10:14:47.536Z,29.09
2023-05-05T10:15:47.596Z,29.09
2023-05-05T10:16:47.719Z,29.07
2023-05-05T10:17:54.306Z,29.03
2023-05-05T10:18:48.574Z,29.03
2023-05-05T10:19:47.567Z,28.78
2023-05-05T10:20:47.571Z,28.68
2023-05-05T10:21:47.622Z,28.63
2023-05-05T10:22:47.594Z,28.62
2023-05-05T10:23:47.534Z,28.55
2023-05-05T10:24:47.518Z,28.48
2023-05-05T10:25:47.497Z,28.44
2023-05-05T10:26:47.513Z,28.45
2023-05-05T10:27:47.506Z,28.47
2023-05-05T10:28:47.489Z,28.41
2023-05-05T10:29:47.516Z,28.35
2023-05-05T10:30:47.470Z,28.39
2023-05-05T10:31:47.503Z,28.41
2023-05-05T10:33:00.512Z,28.38
2023-05-05T10:33:48.550Z,28.42
2023-05-05T10:34:47.468Z,28.39
2023-05-05T10:35:47.485Z,28.35
2023-05-05T10:36:47.441Z,28.37
2023-05-05T10:37:47.454Z,28.37
2023-05-05T10:38:47.480Z,28.42
2023-05-05T10:39:47.428Z,28.41
2023-05-05T10:40:47.400Z,28.45
2023-05-05T10:41:47.418Z,28.49
2023-05-05T10:42:47.441Z,28.48
2023-05-05T10:43:47.406Z,28.51
2023-05-05T10:44:47.388Z,28.55
2023-05-05T10:45:47.442Z,28.59
2023-05-05T10:46:47.379Z,28.63
2023-05-05T10:47:47.487Z,28.65
2023-05-05T10:48:47.444Z,28.66
2023-05-05T10:49:47.359Z,28.68
2023-05-05T10:50:47.342Z,28.68
2023-05-05T10:51:47.331Z,28.68
2023-05-05T10:52:47.369Z,28.68
2023-05-05T10:53:47.348Z,28.65
2023-05-05T10:54:47.423Z,28.66
2023-05-05T10:55:47.388Z,28.63
2023-05-05T10:56:47.414Z,28.66
2023-05-05T10:57:47.398Z,28.62
2023-05-05T10:58:59.251Z,28.60
2023-05-05T10:59:48.502Z,28.56
2023-05-05T11:00:47.427Z,28.56
2023-05-05T11:01:47.401Z,28.56
2023-05-05T11:02:47.411Z,28.55
2023-05-05T11:03:47.453Z,28.52
2023-05-05T11:04:47.407Z,28.51
2023-05-05T11:05:47.390Z,28.48
2023-05-05T11:06:47.382Z,28.48
2023-05-05T11:07:47.383Z,28.45
2023-05-05T11:08:47.364Z,28.44
2023-05-05T11:09:47.496Z,28.44
2023-05-05T11:10:47.358Z,28.47
2023-05-05T11:11:47.366Z,28.39
2023-05-05T11:12:47.480Z,28.41
2023-05-05T11:13:47.510Z,28.34
2023-05-05T11:14:47.501Z,28.29
2023-05-05T11:15:47.533Z,28.31
2023-05-05T11:16:47.853Z,28.27
2023-05-05T11:17:47.672Z,28.31
2023-05-05T11:18:47.629Z,28.34
2023-05-05T11:19:48.005Z,28.35
2023-05-05T11:20:47.682Z,28.37
2023-05-05T11:21:47.702Z,28.37
2023-05-05T11:22:47.745Z,28.41
2023-05-05T11:23:47.744Z,28.45
2023-05-05T11:24:47.755Z,28.45
2023-05-05T11:25:47.773Z,28.48
2023-05-05T11:26:47.869Z,28.45
2023-05-05T11:27:47.826Z,28.48
2023-05-05T11:28:47.835Z,28.48
2023-05-05T11:29:48.417Z,28.47
2023-05-05T11:30:47.891Z,28.41
2023-05-05T11:31:47.908Z,28.38
2023-05-05T11:32:47.867Z,28.38
2023-05-05T11:33:47.879Z,28.35
2023-05-05T11:34:47.894Z,28.41
2023-05-05T11:35:47.884Z,28.44
2023-05-05T11:36:47.911Z,28.42
2023-05-05T11:37:47.924Z,28.44
2023-05-05T11:38:47.938Z,28.47
2023-05-05T11:39:47.968Z,28.49
2023-05-05T11:40:47.947Z,28.51
2023-05-05T11:41:47.958Z,28.41
2023-05-05T11:42:48.041Z,28.39
2023-05-05T11:43:47.992Z,28.44
2023-05-05T11:44:48.032Z,28.41
2023-05-05T11:45:48.166Z,28.44
2023-05-05T11:46:48.056Z,28.45
2023-05-05T11:47:48.082Z,28.47
2023-05-05T11:48:48.073Z,28.48
2023-05-05T11:49:48.086Z,28.51
2023-05-05T11:50:48.084Z,28.52
2023-05-05T11:51:48.101Z,28.54
2023-05-05T11:52:48.110Z,28.58
2023-05-05T11:53:48.120Z,28.59
2023-05-05T11:54:48.214Z,28.60
2023-05-05T11:55:48.152Z,28.59
2023-05-05T11:56:48.329Z,28.59
2023-05-05T11:57:48.205Z,28.58
2023-05-05T11:58:48.324Z,28.59
2023-05-05T11:59:49.512Z,28.58
2023-05-05T12:00:48.300Z,28.55
2023-05-05T12:01:48.325Z,28.55
2023-05-05T12:02:48.438Z,28.52
2023-05-05T12:03:48.554Z,28.51
2023-05-05T12:04:48.520Z,28.49
2023-05-05T12:05:48.554Z,28.47
2023-05-05T12:06:48.550Z,28.44
2023-05-05T12:07:48.618Z,28.42
2023-05-05T12:08:48.652Z,28.42
2023-05-05T12:09:48.692Z,28.39
2023-05-05T12:10:48.749Z,28.38
2023-05-05T12:11:48.749Z,28.35
2023-05-05T12:12:48.831Z,28.35
2023-05-05T12:13:48.869Z,28.35
2023-05-05T12:14:48.965Z,28.35
2023-05-05T12:15:48.940Z,28.31
2023-05-05T12:16:48.988Z,28.31
2023-05-05T12:17:49.133Z,28.31
2023-05-05T12:18:49.108Z,28.28
2023-05-05T12:19:49.163Z,28.29
2023-05-05T12:20:49.197Z,28.28
2023-05-05T12:21:49.280Z,28.28
2023-05-05T12:22:49.335Z,28.28
2023-05-05T12:23:49.369Z,28.25
2023-05-05T12:24:49.430Z,28.27
2023-05-05T12:25:49.491Z,28.27
2023-05-05T12:26:49.531Z,28.28
2023-05-05T12:27:49.585Z,28.28
2023-05-05T12:28:49.655Z,28.31
2023-05-05T12:29:49.700Z,28.31
2023-05-05T12:30:49.902Z,28.29
2023-05-05T12:31:49.850Z,28.29
2023-05-05T12:32:49.875Z,28.34
2023-05-05T12:33:49.922Z,28.32
2023-05-05T12:34:49.966Z,28.32
2023-05-05T12:35:50.011Z,28.35
2023-05-05T12:36:50.086Z,28.35
2023-05-05T12:37:50.129Z,28.27
2023-05-05T12:38:50.149Z,28.27
2023-05-05T12:39:50.222Z,28.31
2023-05-05T12:40:50.237Z,28.31
2023-05-05T12:41:50.274Z,28.34
2023-05-05T12:42:50.345Z,28.34
2023-05-05T12:43:50.395Z,28.34
2023-05-05T12:44:50.461Z,28.32
2023-05-05T12:45:50.504Z,28.37
2023-05-05T12:46:50.525Z,28.38
2023-05-05T12:47:50.616Z,28.41
2023-05-05T12:48:50.632Z,28.42
2023-05-05T12:49:50.675Z,28.45
2023-05-05T12:50:50.745Z,28.45
2023-05-05T12:51:50.766Z,28.45
2023-05-05T12:52:50.802Z,28.47